Time;durP1;ratioP1;P1;durP2;ratioP2;P2;SDS_P1;SDS_P2;PMS_P1;PMS_P2;Temp;Humidity;BMP_temperature;BMP_pressure;BME280_temperature;BME280_humidity;BME280_pressure;Samples;Min_cycle;Max_cycle;Signal;HPM_P1;HPM_P2
2021/06/29 00:03:35;;;;;;;7.85;7.15;;;;;;;15.01;69.22;99769.36;254440;1104;116198;-72
2021/06/29 00:08:38;;;;;;;9.28;7.20;;;;;;;14.90;69.13;99773.09;255640;1104;115996;-73
2021/06/29 00:13:57;;;;;;;8.28;7.05;;;;;;;14.89;69.81;99768.80;254364;1104;115623;-71
2021/06/29 00:18:59;;;;;;;9.38;6.45;;;;;;;14.99;70.13;99776.06;254272;1104;115852;-71
2021/06/29 00:24:03;;;;;;;7.40;6.78;;;;;;;14.90;69.55;99772.28;254364;1104;115560;-72
2021/06/29 00:29:08;;;;;;;10.05;8.05;;;;;;;14.79;69.84;99766.05;254397;1104;115493;-72
2021/06/29 00:34:10;;;;;;;9.13;7.43;;;;;;;14.68;70.13;99761.70;254347;1104;115832;-70
2021/06/29 00:39:14;;;;;;;8.83;7.98;;;;;;;14.61;70.70;99755.78;255230;1104;115027;-72
2021/06/29 00:44:20;;;;;;;8.15;7.35;;;;;;;14.67;70.55;99757.43;257257;1104;116125;-71
2021/06/29 00:49:25;;;;;;;12.33;7.65;;;;;;;14.67;70.25;99754.74;256917;1104;115219;-72
2021/06/29 00:54:36;;;;;;;11.33;9.60;;;;;;;14.61;70.35;99753.09;254678;1104;115276;-72
2021/06/29 00:59:41;;;;;;;13.85;7.38;;;;;;;14.48;70.41;99755.17;256810;1103;115108;-71
2021/06/29 01:04:45;;;;;;;16.05;8.00;;;;;;;14.40;70.34;99747.57;254943;1104;115581;-72
2021/06/29 01:09:51;;;;;;;8.60;7.10;;;;;;;14.30;70.27;99741.36;254644;1098;116742;-71
2021/06/29 01:14:54;;;;;;;10.78;7.28;;;;;;;14.23;70.71;99748.81;254741;1100;115817;-71
2021/06/29 01:19:57;;;;;;;14.08;8.00;;;;;;;14.19;71.09;99739.66;254288;1104;115033;-72
2021/06/29 01:25:00;;;;;;;8.70;6.80;;;;;;;14.09;70.85;99729.67;254222;1104;115839;-71
2021/06/29 01:35:09;;;;;;;12.45;7.13;;;;;;;14.02;70.90;99734.47;254477;1104;115613;-72
2021/06/29 01:45:15;;;;;;;7.78;7.05;;;;;;;14.09;72.23;99726.98;254685;1104;115527;-72
2021/06/29 01:50:18;;;;;;;10.83;7.33;;;;;;;14.10;71.86;99726.73;254445;1104;115816;-72
2021/06/29 01:55:22;;;;;;;14.88;8.55;;;;;;;14.10;71.99;99732.09;254545;1104;115304;-72
2021/06/29 02:00:25;;;;;;;9.73;6.77;;;;;;;14.15;72.23;99724.09;254393;1104;115964;-72
2021/06/29 02:05:28;;;;;;;8.13;7.45;;;;;;;14.09;71.38;99710.91;254437;1104;115166;-72
2021/06/29 02:10:31;;;;;;;10.08;7.20;;;;;;;13.96;71.61;99714.05;254408;1100;115044;-70
2021/06/29 02:15:36;;;;;;;8.73;6.57;;;;;;;13.86;72.00;99708.61;254929;1100;115152;-70
2021/06/29 02:20:40;;;;;;;11.65;8.08;;;;;;;13.83;72.22;99702.70;254349;1104;115766;-70
2021/06/29 02:25:45;;;;;;;12.15;8.85;;;;;;;13.78;72.22;99705.33;254799;1099;116313;-70
2021/06/29 02:30:48;;;;;;;11.55;7.95;;;;;;;13.75;71.89;99699.70;254331;1104;116545;-71
2021/06/29 02:35:51;;;;;;;12.33;8.03;;;;;;;13.73;71.96;99709.87;254381;1104;115642;-71
2021/06/29 02:40:54;;;;;;;7.08;6.48;;;;;;;13.67;71.96;99718.92;256245;1103;115823;-72
2021/06/29 02:45:58;;;;;;;11.23;8.38;;;;;;;13.62;72.31;99711.64;254437;1104;115882;-71
2021/06/29 02:51:01;;;;;;;9.67;8.17;;;;;;;13.61;72.55;99710.02;254248;1104;116288;-70
2021/06/29 02:56:04;;;;;;;13.43;7.63;;;;;;;13.68;72.63;99710.63;254394;1104;116018;-70
2021/06/29 03:01:06;;;;;;;8.30;7.40;;;;;;;13.68;72.51;99707.14;255004;1104;116063;-70
2021/06/29 03:06:12;;;;;;;12.73;10.73;;;;;;;13.66;72.57;99709.27;254375;1104;116741;-70
2021/06/29 03:11:15;;;;;;;15.33;8.70;;;;;;;13.69;73.06;99716.80;255624;1104;116442;-71
2021/06/29 03:16:18;;;;;;;11.15;8.63;;;;;;;13.80;73.38;99715.80;254244;1098;115471;-71
2021/06/29 03:21:25;;;;;;;13.73;8.25;;;;;;;13.86;72.75;99713.97;256243;1104;115531;-71
2021/06/29 03:26:28;;;;;;;15.70;8.83;;;;;;;13.93;73.25;99719.92;254530;1104;116681;-69
2021/06/29 03:31:33;;;;;;;21.75;8.75;;;;;;;14.00;73.08;99712.48;254250;1104;116445;-70
2021/06/29 03:36:45;;;;;;;10.95;8.30;;;;;;;14.04;73.45;99714.39;254425;1104;115628;-73
2021/06/29 03:41:48;;;;;;;11.15;8.85;;;;;;;14.19;73.52;99713.66;254413;1104;116202;-71
2021/06/29 03:46:52;;;;;;;9.43;8.53;;;;;;;14.51;73.30;99713.61;254511;1104;115838;-71
2021/06/29 03:51:57;;;;;;;11.05;9.55;;;;;;;14.62;73.66;99711.80;254452;1104;116287;-69
2021/06/29 03:57:00;;;;;;;16.25;10.98;;;;;;;14.83;73.85;99718.84;254299;1104;116051;-71
2021/06/29 04:02:03;;;;;;;10.28;9.18;;;;;;;15.12;74.00;99722.69;254493;1104;115926;-71
2021/06/29 04:07:08;;;;;;;11.25;10.05;;;;;;;15.31;73.74;99727.55;254242;1104;117014;-70
2021/06/29 04:12:12;;;;;;;;;;;;;;;15.54;73.91;99729.77;254915;1104;117515;-70
2021/06/29 04:17:15;;;;;;;15.93;10.30;;;;;;;15.86;73.82;99732.23;256581;1104;103129;-71
2021/06/29 04:22:18;;;;;;;11.00;9.63;;;;;;;16.15;73.69;99722.52;254733;1104;116259;-71
2021/06/29 04:27:22;;;;;;;11.75;10.53;;;;;;;16.50;73.73;99735.09;254426;1104;115589;-71
2021/06/29 04:32:25;;;;;;;18.15;12.05;;;;;;;16.94;73.95;99728.20;254331;1104;115522;-71
2021/06/29 04:37:27;;;;;;;16.00;11.08;;;;;;;19.26;70.87;99723.66;254329;1104;116607;-70
2021/06/29 04:42:30;;;;;;;11.55;10.35;;;;;;;23.84;65.72;99718.91;254210;1104;115406;-70
2021/06/29 04:47:39;;;;;;;13.55;9.95;;;;;;;26.35;62.59;99737.19;254233;1104;115361;-70
2021/06/29 04:52:43;;;;;;;11.30;10.28;;;;;;;27.07;59.63;99727.42;254333;1103;115998;-70
2021/06/29 04:57:47;;;;;;;12.50;10.07;;;;;;;26.11;58.99;99732.45;254422;1104;115755;-70
2021/06/29 05:02:51;;;;;;;11.60;10.58;;;;;;;25.38;58.15;99723.16;257246;1104;115158;-70
2021/06/29 05:07:59;;;;;;;11.88;10.78;;;;;;;27.28;55.78;99719.03;255992;1104;115615;-72
2021/06/29 05:13:03;;;;;;;11.58;10.48;;;;;;;28.86;53.69;99722.86;255201;1104;115578;-71
2021/06/29 05:18:07;;;;;;;8.88;8.33;;;;;;;32.35;49.23;99719.09;255222;1096;115996;-72
2021/06/29 05:23:13;;;;;;;15.43;7.30;;;;;;;35.31;45.20;99738.13;254388;1104;115268;-72
2021/06/29 05:28:20;;;;;;;5.58;5.10;;;;;;;37.99;42.44;99724.23;255192;1098;114884;-72
2021/06/29 05:33:24;;;;;;;6.78;5.25;;;;;;;40.21;38.35;99719.56;254849;1103;115662;-73
2021/06/29 05:38:27;;;;;;;5.33;4.53;;;;;;;41.99;35.05;99721.00;254171;1104;115964;-72
2021/06/29 05:43:30;;;;;;;4.18;3.88;;;;;;;43.45;32.83;99724.37;255021;1103;117219;-75
2021/06/29 05:48:37;;;;;;;4.00;3.35;;;;;;;44.67;30.26;99721.05;254250;1100;115460;-73
2021/06/29 05:53:41;;;;;;;5.63;3.03;;;;;;;45.60;28.08;99724.09;254523;1103;115038;-71
2021/06/29 05:58:44;;;;;;;3.50;3.30;;;;;;;46.50;27.03;99726.16;254322;1099;115592;-74
2021/06/29 06:03:46;;;;;;;5.28;4.18;;;;;;;47.38;25.26;99731.99;254109;1104;117132;-72
2021/06/29 06:08:49;;;;;;;18.75;4.75;;;;;;;47.93;23.90;99725.71;254255;1104;115560;-74
2021/06/29 06:13:51;;;;;;;3.53;3.33;;;;;;;48.06;23.06;99719.71;255096;1104;115751;-73
2021/06/29 06:18:54;;;;;;;3.85;3.33;;;;;;;48.49;22.37;99717.99;254341;1104;115701;-76
2021/06/29 06:23:56;;;;;;;3.70;3.50;;;;;;;48.86;21.63;99715.38;254085;1104;115599;-75
2021/06/29 06:28:58;;;;;;;2.90;2.70;;;;;;;49.17;20.63;99714.66;254598;1104;115300;-73
2021/06/29 06:34:01;;;;;;;7.03;3.18;;;;;;;49.26;19.90;99708.83;255251;1104;115548;-74
2021/06/29 06:39:04;;;;;;;2.53;2.37;;;;;;;49.05;19.81;99710.94;254356;1103;115563;-73
2021/06/29 06:44:07;;;;;;;2.80;2.60;;;;;;;48.79;19.48;99702.42;254245;1103;116220;-72
2021/06/29 06:49:10;;;;;;;2.05;1.95;;;;;;;48.11;18.92;99704.88;254133;1098;116005;-71
2021/06/29 06:54:13;;;;;;;3.64;2.40;;;;;;;47.64;19.45;99705.98;256356;1104;115180;-71
2021/06/29 06:59:16;;;;;;;6.34;2.48;;;;;;;47.49;19.37;99698.30;256351;1104;115576;-71
2021/06/29 07:04:21;;;;;;;2.60;2.47;;;;;;;47.42;18.66;99690.23;255786;1104;114995;-71
2021/06/29 07:09:25;;;;;;;3.98;2.40;;;;;;;46.51;19.51;99682.59;257250;1103;118494;-71
2021/06/29 07:14:29;;;;;;;2.43;2.23;;;;;;;46.69;19.09;99682.48;256548;1104;115847;-72
2021/06/29 07:19:32;;;;;;;2.33;2.23;;;;;;;46.46;19.13;99681.25;254220;1104;115642;-71
2021/06/29 07:24:35;;;;;;;3.23;1.73;;;;;;;45.58;19.63;99666.70;254438;1104;115324;-73
2021/06/29 07:29:38;;;;;;;1.73;1.73;;;;;;;45.11;19.77;99670.10;255155;1104;115598;-72
2021/06/29 07:34:41;;;;;;;3.28;1.93;;;;;;;44.03;19.65;99675.98;254444;1104;115895;-73
2021/06/29 07:39:43;;;;;;;1.88;1.78;;;;;;;43.10;20.85;99683.63;254843;1104;115667;-69
2021/06/29 07:44:46;;;;;;;1.93;1.83;;;;;;;42.10;20.34;99675.88;254425;1104;115879;-74
2021/06/29 07:49:49;;;;;;;1.45;1.35;;;;;;;41.40;20.95;99660.06;254352;1104;115318;-73
2021/06/29 07:54:51;;;;;;;1.70;1.60;;;;;;;40.52;20.43;99657.77;254730;1104;115059;-77
2021/06/29 07:59:55;;;;;;;1.80;1.70;;;;;;;39.84;22.15;99669.80;254201;1104;115928;-79
2021/06/29 08:04:57;;;;;;;2.50;2.13;;;;;;;39.53;23.86;99672.11;255786;1100;115989;-75
2021/06/29 08:10:08;;;;;;;2.10;2.00;;;;;;;39.10;24.03;99675.02;255021;1104;115411;-74
2021/06/29 08:15:15;;;;;;;2.43;2.30;;;;;;;38.39;24.47;99668.73;255023;1104;115179;-79
2021/06/29 08:20:19;;;;;;;2.55;2.23;;;;;;;38.05;25.28;99668.89;254754;1103;138673;-77
2021/06/29 08:25:24;;;;;;;2.48;2.38;;;;;;;37.88;25.13;99659.63;255293;1104;116066;-75
2021/06/29 08:30:27;;;;;;;2.68;2.15;;;;;;;37.68;23.90;99665.08;254124;1104;115531;-75
2021/06/29 08:35:32;;;;;;;2.57;2.37;;;;;;;37.45;23.34;99669.77;255698;1104;115619;-75
2021/06/29 08:40:37;;;;;;;2.20;2.10;;;;;;;37.09;24.27;99657.08;255625;1098;115550;-74
2021/06/29 08:45:42;;;;;;;2.38;2.23;;;;;;;36.71;25.13;99669.39;255174;1098;116477;-76
2021/06/29 08:50:45;;;;;;;3.17;2.97;;;;;;;36.60;24.37;99661.20;254322;1098;115821;-74
2021/06/29 08:55:50;;;;;;;2.77;2.57;;;;;;;36.42;24.48;99663.34;254492;1104;117191;-77
2021/06/29 09:00:55;;;;;;;2.63;2.03;;;;;;;35.76;24.54;99657.90;254801;1104;116412;-78
2021/06/29 09:05:58;;;;;;;3.35;3.15;;;;;;;34.77;26.20;99667.40;256638;1104;115074;-78
2021/06/29 09:11:16;;;;;;;3.03;2.83;;;;;;;34.66;28.49;99653.57;257135;1104;114812;-75
2021/06/29 09:16:24;;;;;;;3.35;3.10;;;;;;;34.83;28.34;99645.66;254778;1104;118079;-75
2021/06/29 09:21:27;;;;;;;3.48;2.55;;;;;;;34.81;28.17;99639.73;254334;1103;116760;-78
2021/06/29 09:26:30;;;;;;;3.50;2.83;;;;;;;34.75;28.09;99633.78;254042;1104;115408;-75
2021/06/29 09:31:42;;;;;;;3.40;3.13;;;;;;;34.83;27.91;99635.38;254203;1104;115563;-79
2021/06/29 09:36:46;;;;;;;2.60;2.50;;;;;;;34.75;28.46;99633.78;255080;1104;116556;-75
2021/06/29 09:42:01;;;;;;;3.03;2.78;;;;;;;34.88;29.61;99626.63;254304;1104;114963;-78
2021/06/29 09:47:23;;;;;;;3.10;2.90;;;;;;;35.24;29.98;99618.95;254326;1104;115476;-74
2021/06/29 09:52:33;;;;;;;2.63;2.53;;;;;;;35.41;28.18;99612.57;254345;1100;115794;-78
2021/06/29 09:57:36;;;;;;;3.17;2.63;;;;;;;34.88;27.35;99607.24;254409;1104;115516;-77
2021/06/29 10:02:41;;;;;;;3.40;2.83;;;;;;;35.06;30.38;99605.20;254316;1097;114863;-77
2021/06/29 10:07:44;;;;;;;2.60;2.40;;;;;;;35.41;29.01;99607.03;254275;1104;115195;-75
2021/06/29 10:12:50;;;;;;;3.45;3.15;;;;;;;35.62;29.05;99608.07;254537;1104;114855;-76
2021/06/29 10:17:53;;;;;;;3.20;3.00;;;;;;;35.13;28.70;99603.59;254799;1099;116013;-77
2021/06/29 10:22:56;;;;;;;;;;;;;;;35.20;28.83;99593.24;254134;1103;115948;-78
2021/06/29 10:27:59;;;;;;;3.33;3.03;;;;;;;35.13;27.57;99592.52;254880;1103;103078;-77
2021/06/29 10:33:03;;;;;;;3.58;2.73;;;;;;;35.14;28.48;99580.24;254221;1104;116393;-78
2021/06/29 10:38:08;;;;;;;11.90;3.15;;;;;;;35.33;28.10;99574.21;254278;1096;115907;-78
2021/06/29 10:43:11;;;;;;;4.43;3.05;;;;;;;34.97;28.16;99562.50;254299;1099;116150;-78
2021/06/29 10:48:28;;;;;;;4.43;3.97;;;;;;;34.69;27.51;99571.70;256191;1104;115333;-78
2021/06/29 10:53:36;;;;;;;3.65;3.45;;;;;;;34.46;26.96;99558.33;257201;1104;115126;-78
2021/06/29 10:58:41;;;;;;;3.68;3.38;;;;;;;34.59;27.95;99551.16;256380;1104;115666;-78
2021/06/29 11:03:44;;;;;;;4.83;3.73;;;;;;;34.40;28.63;99557.95;257141;1104;116363;-78
2021/06/29 11:08:49;;;;;;;11.00;3.35;;;;;;;34.48;29.07;99549.63;257249;1104;115681;-78
2021/06/29 11:13:52;;;;;;;3.40;3.10;;;;;;;34.34;29.03;99548.47;255903;1104;120533;-77
2021/06/29 11:18:55;;;;;;;12.73;4.48;;;;;;;34.41;27.91;99544.91;254499;1104;117064;-77
2021/06/29 11:23:59;;;;;;;3.18;3.03;;;;;;;34.52;27.37;99526.29;254988;1104;117148;-77
2021/06/29 11:29:04;;;;;;;;;;;;;;;34.43;28.07;99526.70;254095;1104;116844;-78
2021/06/29 11:34:15;;;;;;;6.23;3.57;;;;;;;34.28;26.83;99518.80;255114;1104;103078;-78
2021/06/29 11:39:20;;;;;;;3.85;3.65;;;;;;;34.23;26.51;99514.50;254262;1104;116922;-73
2021/06/29 11:44:24;;;;;;;4.83;3.93;;;;;;;33.97;26.14;99506.63;254347;1104;114849;-77
2021/06/29 11:49:37;;;;;;;6.08;4.13;;;;;;;33.90;26.54;99498.36;254251;1104;115375;-73
2021/06/29 11:54:45;;;;;;;45.38;7.90;;;;;;;33.82;26.66;99494.02;254392;1104;115091;-76
2021/06/29 11:59:50;;;;;;;4.10;3.80;;;;;;;33.90;27.28;99485.33;254443;1103;115825;-76
2021/06/29 12:05:01;;;;;;;3.20;3.00;;;;;;;33.95;27.43;99481.34;254261;1099;115371;-77
2021/06/29 12:10:12;;;;;;;3.58;3.38;;;;;;;33.90;28.11;99481.77;254201;1100;116052;-77
2021/06/29 12:15:20;;;;;;;3.88;2.85;;;;;;;33.85;27.84;99474.66;254647;1104;115178;-77
2021/06/29 12:20:30;;;;;;;4.68;4.18;;;;;;;33.89;28.42;99467.16;254147;1104;115934;-77
2021/06/29 12:25:38;;;;;;;5.03;3.43;;;;;;;33.77;28.48;99453.70;254087;1104;117067;-78
2021/06/29 12:30:47;;;;;;;6.23;3.25;;;;;;;33.73;27.94;99439.88;254237;1104;115459;-77
2021/06/29 12:35:53;;;;;;;4.73;4.30;;;;;;;33.72;27.15;99434.75;254389;1104;116663;-78
2021/06/29 12:41:00;;;;;;;7.00;3.00;;;;;;;33.66;28.26;99434.36;254546;1098;114752;-78
2021/06/29 12:46:19;;;;;;;7.57;3.97;;;;;;;33.59;26.67;99425.31;255981;1104;115366;-78
2021/06/29 12:51:22;;;;;;;4.78;3.40;;;;;;;33.50;27.33;99411.89;256517;1104;115404;-78
2021/06/29 12:56:40;;;;;;;10.63;3.43;;;;;;;33.48;27.19;99403.20;254409;1104;115844;-78
2021/06/29 13:01:46;;;;;;;3.98;3.70;;;;;;;33.45;26.87;99392.94;256378;1104;115414;-78
2021/06/29 13:07:12;;;;;;;7.38;3.65;;;;;;;33.27;27.35;99400.47;255604;1103;115268;-78
2021/06/29 13:12:21;;;;;;;5.08;4.13;;;;;;;33.41;27.96;99394.92;255283;1104;115269;-77
2021/06/29 13:17:24;;;;;;;11.03;4.23;;;;;;;33.54;28.05;99375.97;257439;1103;116733;-78
2021/06/29 13:22:42;;;;;;;13.13;4.05;;;;;;;33.54;28.06;99370.44;255950;1097;117018;-78
2021/06/29 13:27:45;;;;;;;3.13;2.93;;;;;;;33.46;28.76;99375.97;254899;1098;116097;-78
2021/06/29 13:32:50;;;;;;;4.85;4.18;;;;;;;33.41;28.34;99373.60;255503;1104;118570;-78
2021/06/29 13:37:57;;;;;;;3.95;3.58;;;;;;;33.42;28.61;99368.87;254390;1104;116277;-78
2021/06/29 13:43:10;;;;;;;3.80;3.60;;;;;;;33.04;27.91;99368.46;254276;1104;116292;-77
2021/06/29 13:48:14;;;;;;;5.70;3.68;;;;;;;32.94;28.31;99360.98;255035;1104;117035;-78
2021/06/29 13:53:30;;;;;;;3.90;3.60;;;;;;;33.13;28.42;99362.55;254308;1104;117000;-78
2021/06/29 13:58:50;;;;;;;5.10;3.95;;;;;;;32.98;29.24;99355.47;254443;1104;116936;-77
2021/06/29 14:04:05;;;;;;;4.28;3.55;;;;;;;32.85;29.33;99345.98;255088;1104;116246;-78
2021/06/29 14:09:10;;;;;;;4.38;4.00;;;;;;;32.72;29.84;99340.02;254394;1104;116125;-77
2021/06/29 14:14:14;;;;;;;3.63;3.33;;;;;;;32.67;30.34;99326.64;254370;1104;116281;-75
2021/06/29 14:19:17;;;;;;;4.13;3.90;;;;;;;32.82;30.09;99322.72;254925;1104;116298;-78
2021/06/29 14:24:20;;;;;;;4.48;4.08;;;;;;;32.84;29.78;99322.32;254322;1100;114622;-77
2021/06/29 14:29:23;;;;;;;9.05;3.80;;;;;;;32.89;28.87;99314.44;254352;1104;115368;-77
2021/06/29 14:34:26;;;;;;;3.90;3.55;;;;;;;32.93;29.57;99301.43;254991;1104;115470;-77
2021/06/29 14:39:29;;;;;;;3.55;3.33;;;;;;;32.78;29.82;99297.87;254352;1104;115313;-78
2021/06/29 14:44:31;;;;;;;3.13;2.83;;;;;;;32.52;29.44;99289.95;254289;1104;115540;-78
2021/06/29 14:49:34;;;;;;;3.30;3.05;;;;;;;32.38;29.27;99290.73;255458;1100;137299;-78
2021/06/29 14:54:38;;;;;;;5.10;3.30;;;;;;;32.21;29.37;99280.44;255098;1104;114588;-76
2021/06/29 14:59:41;;;;;;;12.43;3.38;;;;;;;32.01;29.67;99281.94;256062;1104;114797;-73
2021/06/29 15:04:43;;;;;;;6.25;3.15;;;;;;;31.78;30.17;99279.51;257087;1104;114895;-76
2021/06/29 15:09:45;;;;;;;3.65;3.45;;;;;;;31.60;30.11;99270.33;255911;1104;115352;-76
2021/06/29 15:14:48;;;;;;;6.25;3.88;;;;;;;31.66;30.64;99266.82;257222;1104;116246;-76
2021/06/29 15:19:51;;;;;;;10.18;3.95;;;;;;;31.62;31.43;99266.02;256238;1104;116251;-76
2021/06/29 15:24:54;;;;;;;3.13;2.93;;;;;;;31.47;30.64;99258.88;257181;1104;116706;-76
2021/06/29 15:29:56;;;;;;;3.40;2.88;;;;;;;31.48;31.53;99254.95;254321;1104;115983;-76
2021/06/29 15:35:04;;;;;;;4.50;3.23;;;;;;;31.61;31.00;99255.38;254198;1104;116156;-75
2021/06/29 15:40:14;;;;;;;3.43;3.23;;;;;;;31.63;31.23;99255.78;254246;1104;116872;-75
2021/06/29 15:45:17;;;;;;;3.23;2.93;;;;;;;31.66;31.21;99264.06;254294;1104;115303;-78
2021/06/29 15:50:22;;;;;;;3.58;3.30;;;;;;;31.44;30.76;99259.64;254031;1104;115872;-75
2021/06/29 15:55:25;;;;;;;4.48;4.08;;;;;;;31.33;30.75;99258.78;254365;1104;115194;-77
2021/06/29 16:00:28;;;;;;;3.63;3.33;;;;;;;31.06;31.12;99256.24;255825;1100;115676;-76
2021/06/29 16:05:31;;;;;;;4.65;4.28;;;;;;;30.97;31.00;99254.98;254715;1104;115019;-75
2021/06/29 16:10:34;;;;;;;4.85;4.45;;;;;;;30.88;30.97;99249.81;254250;1104;114678;-76
2021/06/29 16:15:36;;;;;;;4.70;3.58;;;;;;;30.81;30.67;99244.27;254264;1104;115520;-74
2021/06/29 16:20:40;;;;;;;9.37;4.13;;;;;;;30.64;31.53;99239.41;254227;1104;114616;-76
2021/06/29 16:25:42;;;;;;;4.35;3.00;;;;;;;30.48;31.32;99234.95;254259;1104;115291;-75
2021/06/29 16:30:45;;;;;;;4.47;4.07;;;;;;;30.29;31.37;99226.90;254297;1100;115625;-74
2021/06/29 16:35:49;;;;;;;6.85;3.83;;;;;;;30.04;31.68;99232.16;254301;1104;115062;-75
2021/06/29 16:40:53;;;;;;;3.57;3.33;;;;;;;29.80;32.22;99230.70;254313;1104;115661;-77
2021/06/29 16:45:57;;;;;;;3.45;3.25;;;;;;;29.58;32.65;99220.64;255244;1096;115505;-74
2021/06/29 16:51:00;;;;;;;3.50;3.30;;;;;;;29.26;32.84;99222.16;254411;1104;116024;-77
2021/06/29 16:56:04;;;;;;;5.13;3.70;;;;;;;28.96;33.44;99220.17;254222;1100;115538;-76
2021/06/29 17:01:07;;;;;;;4.48;3.98;;;;;;;28.65;34.89;99207.52;254105;1104;115398;-76
2021/06/29 17:06:10;;;;;;;4.33;4.03;;;;;;;28.33;36.45;99215.22;254827;1104;115698;-76
2021/06/29 17:11:17;;;;;;;7.53;4.30;;;;;;;28.08;37.19;99211.23;257315;1104;115347;-77
2021/06/29 17:16:57;;;;;;;5.98;4.08;;;;;;;27.92;38.26;99211.31;262256;1093;105621;-77
2021/06/29 17:22:00;;;;;;;4.87;4.47;;;;;;;27.79;38.36;99199.75;255314;1103;115348;-76
2021/06/29 17:27:08;;;;;;;7.40;5.00;;;;;;;27.66;38.16;99197.52;255297;1103;115337;-77
2021/06/29 17:32:11;;;;;;;4.47;4.07;;;;;;;27.58;37.91;99199.31;257261;1104;114984;-77
2021/06/29 17:37:14;;;;;;;4.98;4.55;;;;;;;27.57;38.36;99196.90;257284;1104;115370;-74
2021/06/29 17:42:17;;;;;;;4.30;4.00;;;;;;;27.54;39.21;99201.15;254743;1104;115219;-76
2021/06/29 17:47:21;;;;;;;4.83;4.48;;;;;;;27.47;39.81;99198.29;255728;1104;115657;-77
2021/06/29 17:52:25;;;;;;;5.07;4.77;;;;;;;27.40;41.25;99200.88;255345;1100;115812;-74
2021/06/29 17:57:28;;;;;;;13.03;5.23;;;;;;;27.23;41.66;99204.02;255693;1103;115671;-75
2021/06/29 18:02:31;;;;;;;5.10;4.65;;;;;;;27.02;42.34;99207.88;255751;1104;119089;-75
2021/06/29 18:07:34;;;;;;;6.63;5.17;;;;;;;26.81;43.15;99201.91;254585;1104;117366;-75
2021/06/29 18:12:38;;;;;;;7.13;4.73;;;;;;;26.60;43.75;99215.08;254661;1104;114360;-75
2021/06/29 18:17:42;;;;;;;5.78;5.23;;;;;;;26.38;44.33;99209.06;254263;1103;116595;-75
2021/06/29 18:22:45;;;;;;;7.73;5.53;;;;;;;26.17;45.26;99203.83;254559;1103;115410;-75
2021/06/29 18:27:50;;;;;;;14.38;6.15;;;;;;;25.95;45.24;99196.23;254506;1104;116315;-74
2021/06/29 18:32:53;;;;;;;;;;;;;;;25.73;46.05;99208.50;254521;1104;116804;-75
2021/06/29 18:37:56;;;;;;;7.43;6.55;;;;;;;25.54;46.72;99204.80;255400;1104;103107;-74
2021/06/29 18:43:00;;;;;;;5.45;5.05;;;;;;;25.33;46.49;99199.54;254374;1104;116221;-74
2021/06/29 18:48:04;;;;;;;9.05;5.88;;;;;;;25.07;47.85;99195.25;254655;1104;115889;-75
2021/06/29 18:53:07;;;;;;;5.73;5.00;;;;;;;24.93;48.20;99202.98;254978;1100;115437;-75
2021/06/29 18:58:10;;;;;;;9.63;5.53;;;;;;;24.77;48.69;99204.80;254884;1104;116612;-75
2021/06/29 19:03:14;;;;;;;15.00;6.03;;;;;;;24.63;48.61;99207.09;255022;1104;115758;-75
2021/06/29 19:08:17;;;;;;;10.53;5.37;;;;;;;24.47;49.15;99207.75;257351;1104;115404;-75
2021/06/29 19:13:20;;;;;;;11.00;5.65;;;;;;;24.29;48.87;99211.83;256816;1104;115100;-74
2021/06/29 19:18:23;;;;;;;5.88;5.28;;;;;;;24.09;49.83;99218.92;255743;1104;115171;-74
2021/06/29 19:23:29;;;;;;;5.75;5.35;;;;;;;23.91;50.70;99219.41;255408;1104;116249;-75
2021/06/29 19:28:33;;;;;;;5.53;4.70;;;;;;;23.66;51.09;99213.89;256761;1104;116118;-74
2021/06/29 19:33:36;;;;;;;7.85;5.43;;;;;;;23.46;51.70;99209.24;256432;1104;114781;-75
2021/06/29 19:38:41;;;;;;;10.38;5.85;;;;;;;23.33;51.88;99207.58;254295;1104;115341;-74
2021/06/29 19:43:43;;;;;;;;;;;;;;;23.16;51.99;99212.03;254251;1104;138533;-74
2021/06/29 19:48:47;;;;;;;6.63;5.47;;;;;;;23.01;51.69;99226.19;256630;1103;102962;-74
2021/06/29 19:53:55;;;;;;;13.13;5.55;;;;;;;22.89;52.41;99217.16;255422;1104;115543;-74
2021/06/29 19:58:58;;;;;;;5.57;4.83;;;;;;;22.72;53.10;99232.39;254753;1104;117943;-74
2021/06/29 20:04:04;;;;;;;9.70;5.18;;;;;;;22.50;52.97;99219.88;254311;1100;115703;-75
2021/06/29 20:09:08;;;;;;;7.75;5.63;;;;;;;22.35;53.88;99222.31;254993;1104;115287;-76
2021/06/29 20:14:13;;;;;;;8.20;5.90;;;;;;;22.17;54.05;99216.16;255480;1104;115632;-79
2021/06/29 20:19:17;;;;;;;5.43;4.93;;;;;;;22.03;54.31;99207.39;255284;1100;115409;-79
2021/06/29 20:24:20;;;;;;;6.13;5.53;;;;;;;21.80;54.25;99213.00;255127;1104;115087;-74
2021/06/29 20:29:23;;;;;;;6.37;5.77;;;;;;;21.54;54.56;99206.01;254492;1104;117159;-79
2021/06/29 20:34:26;;;;;;;8.50;5.60;;;;;;;21.40;55.18;99206.95;254707;1104;114348;-74
2021/06/29 20:39:30;;;;;;;6.47;5.90;;;;;;;21.24;55.36;99205.05;254505;1104;116670;-75
2021/06/29 20:44:33;;;;;;;8.48;5.98;;;;;;;20.98;55.76;99196.86;254478;1100;115521;-74
2021/06/29 20:49:40;;;;;;;10.45;5.75;;;;;;;20.77;56.35;99200.17;254975;1098;116084;-73
2021/06/29 20:54:44;;;;;;;12.60;6.05;;;;;;;20.59;57.17;99193.09;254255;1104;116040;-77
2021/06/29 20:59:49;;;;;;;8.65;5.70;;;;;;;20.45;57.15;99190.51;254447;1104;117073;-77
2021/06/29 21:05:13;;;;;;;20.48;6.20;;;;;;;20.42;58.22;99188.42;255226;1104;115841;-78
2021/06/29 21:10:17;;;;;;;9.68;6.13;;;;;;;20.43;58.48;99179.19;255959;1104;116551;-79
2021/06/29 21:15:20;;;;;;;7.83;6.70;;;;;;;20.43;58.61;99181.09;254177;1104;116866;-79
2021/06/29 21:20:29;;;;;;;11.30;6.60;;;;;;;20.34;58.62;99178.32;254346;1099;115976;-74
2021/06/29 21:25:38;;;;;;;6.53;5.93;;;;;;;20.26;58.75;99159.33;254390;1104;116301;-75
2021/06/29 21:30:49;;;;;;;5.20;4.80;;;;;;;20.16;59.11;99165.84;256926;1104;116400;-74
2021/06/29 21:35:58;;;;;;;11.38;5.70;;;;;;;20.09;59.57;99160.06;257116;1104;115218;-73
2021/06/29 21:41:07;;;;;;;7.30;5.23;;;;;;;19.96;59.46;99147.41;257260;1104;115172;-73
2021/06/29 21:46:17;;;;;;;9.80;5.97;;;;;;;19.88;59.86;99148.96;257231;1104;114961;-75
2021/06/29 21:51:25;;;;;;;11.15;6.93;;;;;;;19.86;59.92;99147.70;255525;1104;115473;-74
2021/06/29 21:56:34;;;;;;;10.13;7.53;;;;;;;19.82;60.13;99142.91;254526;1100;115690;-74
2021/06/29 22:01:43;;;;;;;9.23;6.03;;;;;;;19.82;60.09;99145.61;254906;1104;115146;-70
2021/06/29 22:06:55;;;;;;;7.13;6.03;;;;;;;19.84;59.93;99137.19;254603;1099;115079;-71
2021/06/29 22:12:04;;;;;;;5.87;5.27;;;;;;;19.77;59.59;99129.52;254340;1104;115459;-72
2021/06/29 22:17:12;;;;;;;4.63;4.27;;;;;;;19.61;59.98;99133.70;254579;1104;116134;-72
2021/06/29 22:22:21;;;;;;;6.67;4.93;;;;;;;19.51;60.64;99123.16;254342;1104;115312;-72
2021/06/29 22:27:29;;;;;;;6.13;5.53;;;;;;;19.47;60.98;99112.13;254317;1104;114490;-71
2021/06/29 22:32:37;;;;;;;5.48;4.98;;;;;;;19.43;60.81;99110.34;254904;1104;116051;-73
2021/06/29 22:37:47;;;;;;;5.25;4.85;;;;;;;19.35;61.19;99108.38;254946;1104;115215;-73
2021/06/29 22:42:56;;;;;;;5.85;5.35;;;;;;;19.22;61.15;99095.73;254407;1104;115088;-73
2021/06/29 22:48:05;;;;;;;5.83;4.27;;;;;;;19.07;61.30;99084.17;254211;1104;115332;-72
2021/06/29 22:53:13;;;;;;;6.10;5.47;;;;;;;18.91;61.59;99079.45;254241;1104;115984;-72
2021/06/29 22:58:21;;;;;;;5.08;4.65;;;;;;;18.79;62.05;99072.67;255177;1104;115139;-72
2021/06/29 23:03:31;;;;;;;13.97;6.03;;;;;;;18.72;61.89;99066.09;255692;1104;114563;-73
2021/06/29 23:08:39;;;;;;;5.75;5.25;;;;;;;18.78;62.20;99062.97;256109;1104;134255;-72
2021/06/29 23:13:48;;;;;;;22.18;7.18;;;;;;;18.74;61.91;99044.98;254681;1104;115082;-72
2021/06/29 23:18:57;;;;;;;5.05;4.65;;;;;;;18.69;62.34;99042.39;254220;1099;115640;-73
2021/06/29 23:24:06;;;;;;;11.38;5.40;;;;;;;18.67;61.58;99041.90;254286;1104;115345;-72
2021/06/29 23:29:15;;;;;;;5.70;4.25;;;;;;;18.64;62.10;99023.64;254515;1099;115233;-74
2021/06/29 23:34:23;;;;;;;5.55;4.13;;;;;;;18.61;62.45;99018.84;254833;1104;115187;-71